sensor_id;sensor_type;location;lat;lon;timestamp;P1;durP1;ratioP1;P2;durP2;ratioP2
55090;SDS011;40985;53.180;5.800;2023-03-01T00:01:47;25.58;;;15.73;;
55090;SDS011;40985;53.180;5.800;2023-03-01T00:04:13;25.90;;;15.50;;
55090;SDS011;40985;53.180;5.800;2023-03-01T00:06:39;25.90;;;16.20;;
55090;SDS011;40985;53.180;5.800;2023-03-01T00:09:04;26.48;;;17.08;;
55090;SDS011;40985;53.180;5.800;2023-03-01T00:11:31;23.58;;;16.02;;
55090;SDS011;40985;53.180;5.800;2023-03-01T00:13:59;22.42;;;16.00;;
55090;SDS011;40985;53.180;5.800;2023-03-01T00:16:27;42.53;;;17.50;;
55090;SDS011;40985;53.180;5.800;2023-03-01T00:18:56;26.52;;;17.67;;
55090;SDS011;40985;53.180;5.800;2023-03-01T00:21:22;30.88;;;18.85;;
55090;SDS011;40985;53.180;5.800;2023-03-01T00:23:48;32.40;;;18.60;;
55090;SDS011;40985;53.180;5.800;2023-03-01T00:26:16;24.92;;;17.30;;
55090;SDS011;40985;53.180;5.800;2023-03-01T00:28:42;25.23;;;17.77;;
55090;SDS011;40985;53.180;5.800;2023-03-01T00:31:10;25.20;;;16.45;;
55090;SDS011;40985;53.180;5.800;2023-03-01T00:33:46;24.20;;;16.92;;
55090;SDS011;40985;53.180;5.800;2023-03-01T00:36:13;26.05;;;17.38;;
55090;SDS011;40985;53.180;5.800;2023-03-01T00:38:40;27.38;;;17.33;;
55090;SDS011;40985;53.180;5.800;2023-03-01T00:41:09;28.83;;;19.05;;
55090;SDS011;40985;53.180;5.800;2023-03-01T00:43:37;24.20;;;16.88;;
55090;SDS011;40985;53.180;5.800;2023-03-01T00:46:07;23.65;;;16.08;;
55090;SDS011;40985;53.180;5.800;2023-03-01T00:48:38;16.05;;;11.65;;
55090;SDS011;40985;53.180;5.800;2023-03-01T00:51:05;19.90;;;13.63;;
55090;SDS011;40985;53.180;5.800;2023-03-01T00:53:34;37.15;;;9.63;;
55090;SDS011;40985;53.180;5.800;2023-03-01T00:56:00;59.67;;;9.40;;
55090;SDS011;40985;53.180;5.800;2023-03-01T00:58:26;45.80;;;10.13;;
55090;SDS011;40985;53.180;5.800;2023-03-01T01:00:51;59.08;;;11.32;;
55090;SDS011;40985;53.180;5.800;2023-03-01T01:03:17;45.10;;;9.10;;
55090;SDS011;40985;53.180;5.800;2023-03-01T01:05:44;32.65;;;9.85;;
55090;SDS011;40985;53.180;5.800;2023-03-01T01:08:09;34.95;;;10.10;;
55090;SDS011;40985;53.180;5.800;2023-03-01T01:10:35;115.97;;;9.93;;
55090;SDS011;40985;53.180;5.800;2023-03-01T01:13:01;59.83;;;8.63;;
55090;SDS011;40985;53.180;5.800;2023-03-01T01:15:27;83.57;;;10.02;;
55090;SDS011;40985;53.180;5.800;2023-03-01T01:17:53;76.05;;;9.10;;
55090;SDS011;40985;53.180;5.800;2023-03-01T01:20:18;118.10;;;9.02;;
55090;SDS011;40985;53.180;5.800;2023-03-01T01:22:44;87.38;;;9.05;;
55090;SDS011;40985;53.180;5.800;2023-03-01T01:25:10;82.00;;;8.63;;
55090;SDS011;40985;53.180;5.800;2023-03-01T01:27:36;102.82;;;9.93;;
55090;SDS011;40985;53.180;5.800;2023-03-01T01:30:02;121.78;;;11.70;;
55090;SDS011;40985;53.180;5.800;2023-03-01T01:32:28;47.33;;;8.70;;
55090;SDS011;40985;53.180;5.800;2023-03-01T01:34:54;58.53;;;10.35;;
55090;SDS011;40985;53.180;5.800;2023-03-01T01:37:20;61.58;;;12.02;;
55090;SDS011;40985;53.180;5.800;2023-03-01T01:39:46;26.75;;;9.90;;
55090;SDS011;40985;53.180;5.800;2023-03-01T01:42:15;12.85;;;9.57;;
55090;SDS011;40985;53.180;5.800;2023-03-01T01:44:42;10.13;;;8.50;;
55090;SDS011;40985;53.180;5.800;2023-03-01T01:47:17;12.63;;;10.00;;
55090;SDS011;40985;53.180;5.800;2023-03-01T01:49:48;10.98;;;8.95;;
55090;SDS011;40985;53.180;5.800;2023-03-01T01:52:17;12.15;;;9.43;;
55090;SDS011;40985;53.180;5.800;2023-03-01T01:54:51;21.50;;;14.00;;
55090;SDS011;40985;53.180;5.800;2023-03-01T01:57:21;14.30;;;10.60;;
55090;SDS011;40985;53.180;5.800;2023-03-01T01:59:54;12.10;;;9.73;;
55090;SDS011;40985;53.180;5.800;2023-03-01T02:02:22;13.15;;;10.27;;
55090;SDS011;40985;53.180;5.800;2023-03-01T02:04:49;12.98;;;10.18;;
55090;SDS011;40985;53.180;5.800;2023-03-01T02:07:23;12.85;;;10.15;;
55090;SDS011;40985;53.180;5.800;2023-03-01T02:09:51;14.88;;;10.38;;
55090;SDS011;40985;53.180;5.800;2023-03-01T02:12:19;13.75;;;10.30;;
55090;SDS011;40985;53.180;5.800;2023-03-01T02:14:47;12.63;;;9.85;;
55090;SDS011;40985;53.180;5.800;2023-03-01T02:17:14;11.18;;;9.27;;
55090;SDS011;40985;53.180;5.800;2023-03-01T02:20:04;14.25;;;10.60;;
55090;SDS011;40985;53.180;5.800;2023-03-01T02:22:39;12.93;;;10.20;;
55090;SDS011;40985;53.180;5.800;2023-03-01T02:30:22;12.40;;;9.32;;
55090;SDS011;40985;53.180;5.800;2023-03-01T02:32:50;12.60;;;9.50;;
55090;SDS011;40985;53.180;5.800;2023-03-01T02:35:18;13.45;;;10.40;;
55090;SDS011;40985;53.180;5.800;2023-03-01T02:37:44;11.45;;;9.27;;
55090;SDS011;40985;53.180;5.800;2023-03-01T02:40:13;11.88;;;8.30;;
55090;SDS011;40985;53.180;5.800;2023-03-01T02:42:55;11.95;;;9.30;;
55090;SDS011;40985;53.180;5.800;2023-03-01T02:45:23;12.40;;;9.27;;
55090;SDS011;40985;53.180;5.800;2023-03-01T02:47:49;11.55;;;8.93;;
55090;SDS011;40985;53.180;5.800;2023-03-01T02:50:19;11.95;;;9.00;;
55090;SDS011;40985;53.180;5.800;2023-03-01T02:53:06;11.85;;;9.23;;
55090;SDS011;40985;53.180;5.800;2023-03-01T02:55:41;11.82;;;9.10;;
55090;SDS011;40985;53.180;5.800;2023-03-01T02:58:06;11.48;;;9.40;;
55090;SDS011;40985;53.180;5.800;2023-03-01T03:00:37;11.98;;;9.25;;
55090;SDS011;40985;53.180;5.800;2023-03-01T03:03:15;10.85;;;8.38;;
55090;SDS011;40985;53.180;5.800;2023-03-01T03:05:44;8.63;;;7.68;;
55090;SDS011;40985;53.180;5.800;2023-03-01T03:08:09;7.53;;;6.82;;
55090;SDS011;40985;53.180;5.800;2023-03-01T03:10:37;8.63;;;7.65;;
55090;SDS011;40985;53.180;5.800;2023-03-01T03:13:06;9.20;;;7.95;;
55090;SDS011;40985;53.180;5.800;2023-03-01T03:15:34;9.70;;;8.00;;
55090;SDS011;40985;53.180;5.800;2023-03-01T03:18:02;11.57;;;8.82;;
55090;SDS011;40985;53.180;5.800;2023-03-01T03:42:43;68.30;;;12.95;;
55090;SDS011;40985;53.180;5.800;2023-03-01T03:45:11;63.70;;;12.15;;
55090;SDS011;40985;53.180;5.800;2023-03-01T03:47:37;59.45;;;12.13;;
55090;SDS011;40985;53.180;5.800;2023-03-01T03:50:03;44.05;;;13.02;;
55090;SDS011;40985;53.180;5.800;2023-03-01T03:52:29;39.63;;;11.65;;
55090;SDS011;40985;53.180;5.800;2023-03-01T03:54:54;44.63;;;13.20;;
55090;SDS011;40985;53.180;5.800;2023-03-01T03:57:20;49.45;;;12.55;;
55090;SDS011;40985;53.180;5.800;2023-03-01T03:59:47;21.20;;;11.50;;
55090;SDS011;40985;53.180;5.800;2023-03-01T04:02:13;50.97;;;12.52;;
55090;SDS011;40985;53.180;5.800;2023-03-01T04:04:49;28.50;;;11.63;;
55090;SDS011;40985;53.180;5.800;2023-03-01T04:07:15;31.95;;;12.93;;
55090;SDS011;40985;53.180;5.800;2023-03-01T04:09:42;25.23;;;12.73;;
55090;SDS011;40985;53.180;5.800;2023-03-01T04:12:08;27.40;;;13.38;;
55090;SDS011;40985;53.180;5.800;2023-03-01T04:14:34;51.20;;;15.13;;
55090;SDS011;40985;53.180;5.800;2023-03-01T04:17:00;52.92;;;13.65;;
55090;SDS011;40985;53.180;5.800;2023-03-01T04:19:26;42.75;;;13.18;;
55090;SDS011;40985;53.180;5.800;2023-03-01T04:21:52;27.88;;;11.85;;
55090;SDS011;40985;53.180;5.800;2023-03-01T04:24:18;80.38;;;13.85;;
55090;SDS011;40985;53.180;5.800;2023-03-01T04:26:44;85.03;;;14.98;;
55090;SDS011;40985;53.180;5.800;2023-03-01T04:29:10;59.25;;;14.88;;
55090;SDS011;40985;53.180;5.800;2023-03-01T04:31:35;51.00;;;14.07;;
55090;SDS011;40985;53.180;5.800;2023-03-01T04:34:01;44.65;;;14.35;;
55090;SDS011;40985;53.180;5.800;2023-03-01T04:36:28;80.43;;;15.82;;
55090;SDS011;40985;53.180;5.800;2023-03-01T04:38:54;55.33;;;15.32;;
55090;SDS011;40985;53.180;5.800;2023-03-01T04:41:21;45.30;;;13.88;;
55090;SDS011;40985;53.180;5.800;2023-03-01T04:43:48;66.75;;;14.40;;
55090;SDS011;40985;53.180;5.800;2023-03-01T04:46:15;38.92;;;14.23;;
55090;SDS011;40985;53.180;5.800;2023-03-01T04:48:44;38.00;;;12.57;;
55090;SDS011;40985;53.180;5.800;2023-03-01T04:51:10;22.60;;;12.88;;
55090;SDS011;40985;53.180;5.800;2023-03-01T04:53:38;23.77;;;13.10;;
55090;SDS011;40985;53.180;5.800;2023-03-01T04:56:05;16.98;;;10.93;;
55090;SDS011;40985;53.180;5.800;2023-03-01T04:58:31;17.60;;;12.50;;
55090;SDS011;40985;53.180;5.800;2023-03-01T05:00:57;21.13;;;13.88;;
55090;SDS011;40985;53.180;5.800;2023-03-01T05:03:23;36.28;;;12.65;;
55090;SDS011;40985;53.180;5.800;2023-03-01T05:05:50;30.73;;;12.63;;
55090;SDS011;40985;53.180;5.800;2023-03-01T05:08:17;25.00;;;13.30;;
55090;SDS011;40985;53.180;5.800;2023-03-01T05:10:48;60.15;;;13.75;;
55090;SDS011;40985;53.180;5.800;2023-03-01T05:13:16;20.23;;;12.25;;
55090;SDS011;40985;53.180;5.800;2023-03-01T05:15:49;18.85;;;12.57;;
55090;SDS011;40985;53.180;5.800;2023-03-01T05:18:20;21.98;;;12.13;;
55090;SDS011;40985;53.180;5.800;2023-03-01T05:20:45;18.58;;;12.57;;
55090;SDS011;40985;53.180;5.800;2023-03-01T05:23:12;21.02;;;11.20;;
55090;SDS011;40985;53.180;5.800;2023-03-01T05:25:38;47.38;;;14.73;;
55090;SDS011;40985;53.180;5.800;2023-03-01T05:28:05;65.43;;;14.27;;
55090;SDS011;40985;53.180;5.800;2023-03-01T05:30:34;86.07;;;12.25;;
55090;SDS011;40985;53.180;5.800;2023-03-01T05:33:00;40.90;;;12.80;;
55090;SDS011;40985;53.180;5.800;2023-03-01T05:35:26;41.97;;;12.77;;
55090;SDS011;40985;53.180;5.800;2023-03-01T05:37:52;44.03;;;12.02;;
55090;SDS011;40985;53.180;5.800;2023-03-01T05:40:21;18.90;;;12.05;;
55090;SDS011;40985;53.180;5.800;2023-03-01T05:42:50;31.08;;;12.45;;
55090;SDS011;40985;53.180;5.800;2023-03-01T05:45:20;37.58;;;13.10;;
55090;SDS011;40985;53.180;5.800;2023-03-01T05:47:47;56.17;;;15.90;;
55090;SDS011;40985;53.180;5.800;2023-03-01T05:50:18;75.38;;;13.50;;
55090;SDS011;40985;53.180;5.800;2023-03-01T05:52:46;34.75;;;12.70;;
55090;SDS011;40985;53.180;5.800;2023-03-01T05:55:17;40.80;;;13.02;;
55090;SDS011;40985;53.180;5.800;2023-03-01T05:57:43;75.35;;;13.27;;
55090;SDS011;40985;53.180;5.800;2023-03-01T06:00:10;48.22;;;11.65;;
55090;SDS011;40985;53.180;5.800;2023-03-01T06:02:37;99.60;;;13.55;;
55090;SDS011;40985;53.180;5.800;2023-03-01T06:05:04;117.72;;;11.63;;
55090;SDS011;40985;53.180;5.800;2023-03-01T06:07:31;59.20;;;8.40;;
55090;SDS011;40985;53.180;5.800;2023-03-01T06:09:57;90.47;;;9.52;;
55090;SDS011;40985;53.180;5.800;2023-03-01T06:12:22;34.65;;;7.25;;
55090;SDS011;40985;53.180;5.800;2023-03-01T06:14:48;9.93;;;7.88;;
55090;SDS011;40985;53.180;5.800;2023-03-01T06:17:14;17.23;;;9.90;;
55090;SDS011;40985;53.180;5.800;2023-03-01T06:19:39;17.75;;;11.23;;
55090;SDS011;40985;53.180;5.800;2023-03-01T06:22:05;57.97;;;12.48;;
55090;SDS011;40985;53.180;5.800;2023-03-01T06:24:31;50.10;;;11.13;;
55090;SDS011;40985;53.180;5.800;2023-03-01T06:26:57;36.33;;;11.10;;
55090;SDS011;40985;53.180;5.800;2023-03-01T06:29:23;19.85;;;10.85;;
55090;SDS011;40985;53.180;5.800;2023-03-01T06:31:48;19.67;;;10.60;;
55090;SDS011;40985;53.180;5.800;2023-03-01T06:34:14;20.27;;;11.50;;
55090;SDS011;40985;53.180;5.800;2023-03-01T06:36:43;12.55;;;9.30;;
55090;SDS011;40985;53.180;5.800;2023-03-01T06:39:09;17.05;;;11.73;;
55090;SDS011;40985;53.180;5.800;2023-03-01T06:41:34;17.45;;;10.10;;
55090;SDS011;40985;53.180;5.800;2023-03-01T06:44:00;15.13;;;10.27;;
55090;SDS011;40985;53.180;5.800;2023-03-01T06:46:27;18.75;;;11.38;;
55090;SDS011;40985;53.180;5.800;2023-03-01T06:48:53;18.55;;;12.25;;
55090;SDS011;40985;53.180;5.800;2023-03-01T06:51:18;17.90;;;10.98;;
55090;SDS011;40985;53.180;5.800;2023-03-01T06:53:45;18.25;;;11.35;;
55090;SDS011;40985;53.180;5.800;2023-03-01T06:56:11;16.52;;;11.18;;
55090;SDS011;40985;53.180;5.800;2023-03-01T06:58:37;15.63;;;11.13;;
55090;SDS011;40985;53.180;5.800;2023-03-01T07:01:06;16.25;;;10.38;;
55090;SDS011;40985;53.180;5.800;2023-03-01T07:03:32;14.43;;;9.65;;
55090;SDS011;40985;53.180;5.800;2023-03-01T07:05:58;14.88;;;10.48;;
55090;SDS011;40985;53.180;5.800;2023-03-01T07:08:24;13.32;;;10.50;;
55090;SDS011;40985;53.180;5.800;2023-03-01T07:10:56;15.57;;;10.77;;
55090;SDS011;40985;53.180;5.800;2023-03-01T07:13:23;14.95;;;10.05;;
55090;SDS011;40985;53.180;5.800;2023-03-01T07:15:49;16.40;;;11.30;;
55090;SDS011;40985;53.180;5.800;2023-03-01T07:18:15;15.93;;;11.07;;
55090;SDS011;40985;53.180;5.800;2023-03-01T07:20:40;17.15;;;11.68;;
55090;SDS011;40985;53.180;5.800;2023-03-01T07:23:06;15.65;;;11.20;;
55090;SDS011;40985;53.180;5.800;2023-03-01T07:25:32;16.83;;;12.30;;
55090;SDS011;40985;53.180;5.800;2023-03-01T07:27:58;19.33;;;11.10;;
55090;SDS011;40985;53.180;5.800;2023-03-01T07:30:27;15.93;;;10.55;;
55090;SDS011;40985;53.180;5.800;2023-03-01T07:32:54;15.75;;;10.75;;
55090;SDS011;40985;53.180;5.800;2023-03-01T07:35:21;15.32;;;10.68;;
55090;SDS011;40985;53.180;5.800;2023-03-01T07:37:47;14.55;;;10.93;;
55090;SDS011;40985;53.180;5.800;2023-03-01T07:40:13;16.77;;;11.98;;
55090;SDS011;40985;53.180;5.800;2023-03-01T07:42:39;14.93;;;10.05;;
55090;SDS011;40985;53.180;5.800;2023-03-01T07:45:05;13.23;;;10.68;;
55090;SDS011;40985;53.180;5.800;2023-03-01T07:47:34;17.20;;;11.80;;
55090;SDS011;40985;53.180;5.800;2023-03-01T07:50:00;13.50;;;10.60;;
55090;SDS011;40985;53.180;5.800;2023-03-01T07:52:29;14.73;;;11.73;;
55090;SDS011;40985;53.180;5.800;2023-03-01T07:54:55;16.90;;;12.32;;
55090;SDS011;40985;53.180;5.800;2023-03-01T07:57:22;14.27;;;11.00;;
55090;SDS011;40985;53.180;5.800;2023-03-01T07:59:48;15.27;;;11.52;;
55090;SDS011;40985;53.180;5.800;2023-03-01T08:02:13;13.43;;;11.32;;
55090;SDS011;40985;53.180;5.800;2023-03-01T08:04:40;15.50;;;11.82;;
55090;SDS011;40985;53.180;5.800;2023-03-01T08:07:07;15.32;;;11.38;;
55090;SDS011;40985;53.180;5.800;2023-03-01T08:09:34;14.40;;;11.60;;
55090;SDS011;40985;53.180;5.800;2023-03-01T08:12:01;17.73;;;13.02;;
55090;SDS011;40985;53.180;5.800;2023-03-01T08:14:28;17.10;;;12.80;;
55090;SDS011;40985;53.180;5.800;2023-03-01T08:16:56;17.38;;;13.07;;
55090;SDS011;40985;53.180;5.800;2023-03-01T08:19:22;18.52;;;12.75;;
55090;SDS011;40985;53.180;5.800;2023-03-01T08:21:48;16.23;;;12.77;;
55090;SDS011;40985;53.180;5.800;2023-03-01T08:24:16;17.15;;;12.85;;
55090;SDS011;40985;53.180;5.800;2023-03-01T08:26:50;19.25;;;14.75;;
55090;SDS011;40985;53.180;5.800;2023-03-01T08:29:16;20.63;;;15.00;;
55090;SDS011;40985;53.180;5.800;2023-03-01T08:31:41;19.15;;;14.23;;
55090;SDS011;40985;53.180;5.800;2023-03-01T08:34:09;20.45;;;14.88;;
55090;SDS011;40985;53.180;5.800;2023-03-01T08:36:38;22.70;;;16.10;;
55090;SDS011;40985;53.180;5.800;2023-03-01T08:39:05;23.25;;;16.65;;
55090;SDS011;40985;53.180;5.800;2023-03-01T08:41:31;20.85;;;15.48;;
55090;SDS011;40985;53.180;5.800;2023-03-01T08:43:57;21.42;;;16.15;;
55090;SDS011;40985;53.180;5.800;2023-03-01T08:46:24;21.38;;;16.85;;
55090;SDS011;40985;53.180;5.800;2023-03-01T08:48:54;19.25;;;14.98;;
55090;SDS011;40985;53.180;5.800;2023-03-01T08:51:20;25.02;;;16.52;;
55090;SDS011;40985;53.180;5.800;2023-03-01T08:53:47;21.92;;;16.20;;
55090;SDS011;40985;53.180;5.800;2023-03-01T08:56:16;24.25;;;16.42;;
55090;SDS011;40985;53.180;5.800;2023-03-01T08:58:44;28.23;;;18.85;;
55090;SDS011;40985;53.180;5.800;2023-03-01T09:01:17;25.88;;;18.95;;
55090;SDS011;40985;53.180;5.800;2023-03-01T09:03:44;25.98;;;18.88;;
55090;SDS011;40985;53.180;5.800;2023-03-01T09:06:16;27.77;;;19.95;;
55090;SDS011;40985;53.180;5.800;2023-03-01T09:08:45;26.40;;;20.27;;
55090;SDS011;40985;53.180;5.800;2023-03-01T09:11:14;29.55;;;19.70;;
55090;SDS011;40985;53.180;5.800;2023-03-01T09:13:42;27.95;;;20.48;;
55090;SDS011;40985;53.180;5.800;2023-03-01T09:16:09;25.45;;;19.38;;
55090;SDS011;40985;53.180;5.800;2023-03-01T09:18:36;23.23;;;18.13;;
55090;SDS011;40985;53.180;5.800;2023-03-01T09:21:03;24.60;;;18.73;;
55090;SDS011;40985;53.180;5.800;2023-03-01T09:23:34;25.75;;;19.00;;
55090;SDS011;40985;53.180;5.800;2023-03-01T09:26:01;26.08;;;18.50;;
55090;SDS011;40985;53.180;5.800;2023-03-01T09:28:28;22.88;;;17.83;;
55090;SDS011;40985;53.180;5.800;2023-03-01T09:30:53;22.77;;;16.73;;
55090;SDS011;40985;53.180;5.800;2023-03-01T09:33:22;21.70;;;17.80;;
55090;SDS011;40985;53.180;5.800;2023-03-01T09:35:48;21.23;;;16.05;;
55090;SDS011;40985;53.180;5.800;2023-03-01T09:38:13;21.10;;;15.40;;
55090;SDS011;40985;53.180;5.800;2023-03-01T09:40:43;24.50;;;15.85;;
55090;SDS011;40985;53.180;5.800;2023-03-01T09:43:15;16.27;;;13.52;;
55090;SDS011;40985;53.180;5.800;2023-03-01T09:45:56;15.95;;;13.82;;
55090;SDS011;40985;53.180;5.800;2023-03-01T09:48:29;19.42;;;13.77;;
55090;SDS011;40985;53.180;5.800;2023-03-01T09:51:05;19.25;;;14.18;;
55090;SDS011;40985;53.180;5.800;2023-03-01T09:53:34;14.30;;;12.05;;
55090;SDS011;40985;53.180;5.800;2023-03-01T09:58:41;22.60;;;12.27;;
55090;SDS011;40985;53.180;5.800;2023-03-01T10:01:38;13.25;;;10.82;;
55090;SDS011;40985;53.180;5.800;2023-03-01T10:07:21;15.73;;;11.15;;
55090;SDS011;40985;53.180;5.800;2023-03-01T10:10:06;14.05;;;10.90;;
55090;SDS011;40985;53.180;5.800;2023-03-01T10:12:40;15.07;;;10.60;;
55090;SDS011;40985;53.180;5.800;2023-03-01T10:15:18;13.35;;;10.80;;
55090;SDS011;40985;53.180;5.800;2023-03-01T10:18:01;13.20;;;10.40;;
55090;SDS011;40985;53.180;5.800;2023-03-01T10:20:46;15.73;;;11.18;;
55090;SDS011;40985;53.180;5.800;2023-03-01T10:23:16;18.10;;;13.05;;
55090;SDS011;40985;53.180;5.800;2023-03-01T10:31:37;14.05;;;12.00;;
55090;SDS011;40985;53.180;5.800;2023-03-01T10:34:08;14.98;;;11.60;;
55090;SDS011;40985;53.180;5.800;2023-03-01T10:36:39;16.27;;;12.63;;
55090;SDS011;40985;53.180;5.800;2023-03-01T10:39:11;16.23;;;12.43;;
55090;SDS011;40985;53.180;5.800;2023-03-01T10:42:19;12.77;;;11.45;;
55090;SDS011;40985;53.180;5.800;2023-03-01T10:44:48;15.25;;;12.85;;
55090;SDS011;40985;53.180;5.800;2023-03-01T10:47:24;15.30;;;11.73;;
55090;SDS011;40985;53.180;5.800;2023-03-01T10:49:53;15.60;;;12.95;;
55090;SDS011;40985;53.180;5.800;2023-03-01T10:52:36;17.23;;;13.48;;
55090;SDS011;40985;53.180;5.800;2023-03-01T10:57:49;14.35;;;12.30;;
55090;SDS011;40985;53.180;5.800;2023-03-01T11:00:30;14.82;;;13.00;;
55090;SDS011;40985;53.180;5.800;2023-03-01T11:05:34;17.05;;;12.98;;
55090;SDS011;40985;53.180;5.800;2023-03-01T11:08:01;13.57;;;11.80;;
55090;SDS011;40985;53.180;5.800;2023-03-01T11:15:39;11.32;;;10.30;;
55090;SDS011;40985;53.180;5.800;2023-03-01T11:18:05;12.68;;;11.35;;
55090;SDS011;40985;53.180;5.800;2023-03-01T11:20:44;12.45;;;11.15;;
55090;SDS011;40985;53.180;5.800;2023-03-01T11:23:11;12.77;;;11.48;;
55090;SDS011;40985;53.180;5.800;2023-03-01T11:25:42;11.75;;;10.55;;
55090;SDS011;40985;53.180;5.800;2023-03-01T11:28:14;11.65;;;9.77;;
55090;SDS011;40985;53.180;5.800;2023-03-01T11:30:51;10.32;;;9.20;;
55090;SDS011;40985;53.180;5.800;2023-03-01T11:38:55;11.50;;;10.40;;
55090;SDS011;40985;53.180;5.800;2023-03-01T11:41:23;10.77;;;9.65;;
55090;SDS011;40985;53.180;5.800;2023-03-01T11:44:01;10.95;;;9.88;;
55090;SDS011;40985;53.180;5.800;2023-03-01T11:46:45;11.70;;;9.98;;
55090;SDS011;40985;53.180;5.800;2023-03-01T11:49:44;10.10;;;9.02;;
55090;SDS011;40985;53.180;5.800;2023-03-01T12:17:07;13.57;;;11.05;;
55090;SDS011;40985;53.180;5.800;2023-03-01T12:25:14;15.77;;;11.85;;
55090;SDS011;40985;53.180;5.800;2023-03-01T12:35:46;12.98;;;10.70;;
55090;SDS011;40985;53.180;5.800;2023-03-01T12:41:09;11.90;;;10.45;;
55090;SDS011;40985;53.180;5.800;2023-03-01T12:43:44;11.43;;;10.18;;
55090;SDS011;40985;53.180;5.800;2023-03-01T12:46:21;12.60;;;10.07;;
55090;SDS011;40985;53.180;5.800;2023-03-01T12:48:59;13.35;;;10.73;;
55090;SDS011;40985;53.180;5.800;2023-03-01T12:54:35;10.75;;;9.65;;
55090;SDS011;40985;53.180;5.800;2023-03-01T12:57:18;12.25;;;10.20;;
55090;SDS011;40985;53.180;5.800;2023-03-01T13:03:06;13.32;;;9.90;;
55090;SDS011;40985;53.180;5.800;2023-03-01T13:10:58;12.10;;;10.05;;
55090;SDS011;40985;53.180;5.800;2023-03-01T13:13:28;11.75;;;10.55;;
55090;SDS011;40985;53.180;5.800;2023-03-01T13:15:55;11.10;;;10.10;;
55090;SDS011;40985;53.180;5.800;2023-03-01T13:20:51;12.55;;;9.80;;
55090;SDS011;40985;53.180;5.800;2023-03-01T13:28:38;11.27;;;10.07;;
55090;SDS011;40985;53.180;5.800;2023-03-01T13:31:56;11.60;;;10.40;;
55090;SDS011;40985;53.180;5.800;2023-03-01T13:34:00;12.00;;;9.70;;
55090;SDS011;40985;53.180;5.800;2023-03-01T13:47:36;12.18;;;9.63;;
55090;SDS011;40985;53.180;5.800;2023-03-01T13:49:52;10.40;;;9.30;;
55090;SDS011;40985;53.180;5.800;2023-03-01T13:55:16;10.40;;;9.32;;
55090;SDS011;40985;53.180;5.800;2023-03-01T13:57:56;9.25;;;8.32;;
55090;SDS011;40985;53.180;5.800;2023-03-01T14:00:28;11.82;;;10.55;;
55090;SDS011;40985;53.180;5.800;2023-03-01T14:03:01;11.63;;;8.75;;
55090;SDS011;40985;53.180;5.800;2023-03-01T14:05:33;10.20;;;8.90;;
55090;SDS011;40985;53.180;5.800;2023-03-01T14:08:01;10.63;;;9.52;;
55090;SDS011;40985;53.180;5.800;2023-03-01T14:10:32;11.52;;;10.20;;
55090;SDS011;40985;53.180;5.800;2023-03-01T14:13:19;11.57;;;9.57;;
55090;SDS011;40985;53.180;5.800;2023-03-01T14:18:43;11.95;;;9.48;;
55090;SDS011;40985;53.180;5.800;2023-03-01T14:21:21;9.93;;;8.93;;
55090;SDS011;40985;53.180;5.800;2023-03-01T14:23:47;10.88;;;9.63;;
55090;SDS011;40985;53.180;5.800;2023-03-01T14:26:13;9.82;;;8.82;;
55090;SDS011;40985;53.180;5.800;2023-03-01T14:28:46;10.35;;;9.20;;
55090;SDS011;40985;53.180;5.800;2023-03-01T14:31:49;9.32;;;8.50;;
55090;SDS011;40985;53.180;5.800;2023-03-01T14:34:16;11.18;;;9.18;;
55090;SDS011;40985;53.180;5.800;2023-03-01T14:36:47;10.43;;;9.32;;
55090;SDS011;40985;53.180;5.800;2023-03-01T14:39:17;11.55;;;9.38;;
55090;SDS011;40985;53.180;5.800;2023-03-01T14:41:46;13.00;;;9.95;;
55090;SDS011;40985;53.180;5.800;2023-03-01T14:44:14;11.90;;;9.27;;
55090;SDS011;40985;53.180;5.800;2023-03-01T14:46:44;12.57;;;9.25;;
55090;SDS011;40985;53.180;5.800;2023-03-01T14:49:22;12.25;;;9.73;;
55090;SDS011;40985;53.180;5.800;2023-03-01T14:51:51;9.13;;;8.23;;
55090;SDS011;40985;53.180;5.800;2023-03-01T14:57:00;11.38;;;7.82;;
55090;SDS011;40985;53.180;5.800;2023-03-01T14:59:27;9.57;;;8.55;;
55090;SDS011;40985;53.180;5.800;2023-03-01T15:01:54;11.10;;;9.38;;
55090;SDS011;40985;53.180;5.800;2023-03-01T15:04:23;10.82;;;8.55;;
55090;SDS011;40985;53.180;5.800;2023-03-01T15:06:51;9.25;;;8.30;;
55090;SDS011;40985;53.180;5.800;2023-03-01T15:09:18;10.02;;;7.80;;
55090;SDS011;40985;53.180;5.800;2023-03-01T15:11:46;10.75;;;8.65;;
55090;SDS011;40985;53.180;5.800;2023-03-01T15:14:27;10.35;;;8.15;;
55090;SDS011;40985;53.180;5.800;2023-03-01T15:17:16;10.77;;;7.88;;
55090;SDS011;40985;53.180;5.800;2023-03-01T15:19:54;9.30;;;8.40;;
55090;SDS011;40985;53.180;5.800;2023-03-01T15:22:19;8.20;;;7.18;;
55090;SDS011;40985;53.180;5.800;2023-03-01T15:24:49;8.65;;;7.68;;
55090;SDS011;40985;53.180;5.800;2023-03-01T15:27:16;11.30;;;7.20;;
55090;SDS011;40985;53.180;5.800;2023-03-01T15:34:49;7.78;;;7.07;;
55090;SDS011;40985;53.180;5.800;2023-03-01T15:40:17;8.73;;;7.65;;
55090;SDS011;40985;53.180;5.800;2023-03-01T15:42:59;8.35;;;6.97;;
55090;SDS011;40985;53.180;5.800;2023-03-01T15:45:27;9.93;;;7.22;;
55090;SDS011;40985;53.180;5.800;2023-03-01T15:47:55;9.63;;;7.90;;
55090;SDS011;40985;53.180;5.800;2023-03-01T15:50:32;12.73;;;7.32;;
55090;SDS011;40985;53.180;5.800;2023-03-01T15:53:01;9.20;;;7.72;;
55090;SDS011;40985;53.180;5.800;2023-03-01T15:55:33;10.85;;;8.60;;
55090;SDS011;40985;53.180;5.800;2023-03-01T15:58:03;10.55;;;9.15;;
55090;SDS011;40985;53.180;5.800;2023-03-01T16:00:34;11.07;;;9.60;;
55090;SDS011;40985;53.180;5.800;2023-03-01T16:03:00;11.40;;;9.35;;
55090;SDS011;40985;53.180;5.800;2023-03-01T16:05:28;10.18;;;9.10;;
55090;SDS011;40985;53.180;5.800;2023-03-01T16:07:56;11.63;;;9.75;;
55090;SDS011;40985;53.180;5.800;2023-03-01T16:10:21;10.30;;;9.20;;
55090;SDS011;40985;53.180;5.800;2023-03-01T16:12:48;12.85;;;9.32;;
55090;SDS011;40985;53.180;5.800;2023-03-01T16:15:22;11.43;;;9.30;;
55090;SDS011;40985;53.180;5.800;2023-03-01T16:17:49;10.98;;;9.40;;
55090;SDS011;40985;53.180;5.800;2023-03-01T16:20:17;10.65;;;9.57;;
55090;SDS011;40985;53.180;5.800;2023-03-01T16:22:44;10.32;;;9.25;;
55090;SDS011;40985;53.180;5.800;2023-03-01T16:25:11;10.45;;;9.43;;
55090;SDS011;40985;53.180;5.800;2023-03-01T16:27:41;9.63;;;7.93;;
55090;SDS011;40985;53.180;5.800;2023-03-01T16:30:08;10.60;;;9.50;;
55090;SDS011;40985;53.180;5.800;2023-03-01T16:32:42;14.77;;;11.40;;
55090;SDS011;40985;53.180;5.800;2023-03-01T16:35:11;16.33;;;13.07;;
55090;SDS011;40985;53.180;5.800;2023-03-01T16:37:38;17.65;;;14.02;;
55090;SDS011;40985;53.180;5.800;2023-03-01T16:40:04;16.40;;;13.98;;
55090;SDS011;40985;53.180;5.800;2023-03-01T16:42:37;19.55;;;14.50;;
55090;SDS011;40985;53.180;5.800;2023-03-01T16:45:03;20.55;;;15.15;;
55090;SDS011;40985;53.180;5.800;2023-03-01T16:47:29;19.58;;;15.32;;
55090;SDS011;40985;53.180;5.800;2023-03-01T16:49:55;23.70;;;16.65;;
55090;SDS011;40985;53.180;5.800;2023-03-01T16:52:21;19.58;;;15.43;;
55090;SDS011;40985;53.180;5.800;2023-03-01T16:54:47;23.92;;;16.10;;
55090;SDS011;40985;53.180;5.800;2023-03-01T16:57:13;19.85;;;15.52;;
55090;SDS011;40985;53.180;5.800;2023-03-01T16:59:39;20.48;;;15.90;;
55090;SDS011;40985;53.180;5.800;2023-03-01T17:02:05;23.08;;;16.80;;